sensor_id;sensor_type;location;lat;lon;timestamp;pressure;altitude;pressure_sealevel;temperature;humidity
35908;BME280;22003;50.320;8.054;2022-12-29T05:00:34;98666.06;;;9.66;100.00
35908;BME280;22003;50.320;8.054;2022-12-29T05:03:00;98645.63;;;9.48;100.00
35908;BME280;22003;50.320;8.054;2022-12-29T05:05:25;98662.75;;;9.64;100.00
35908;BME280;22003;50.320;8.054;2022-12-29T05:07:51;98668.88;;;9.55;100.00
35908;BME280;22003;50.320;8.054;2022-12-29T05:10:16;98666.09;;;9.56;100.00
35908;BME280;22003;50.320;8.054;2022-12-29T05:12:42;98666.78;;;9.68;100.00
35908;BME280;22003;50.320;8.054;2022-12-29T05:15:09;98648.44;;;9.66;100.00
35908;BME280;22003;50.320;8.054;2022-12-29T05:17:34;98644.25;;;9.64;100.00
35908;BME280;22003;50.320;8.054;2022-12-29T05:20:00;98664.53;;;9.83;100.00
35908;BME280;22003;50.320;8.054;2022-12-29T05:22:25;98627.81;;;9.31;100.00
35908;BME280;22003;50.320;8.054;2022-12-29T05:24:50;98651.34;;;9.44;100.00
35908;BME280;22003;50.320;8.054;2022-12-29T05:27:15;98642.00;;;9.59;100.00
35908;BME280;22003;50.320;8.054;2022-12-29T05:29:41;98677.91;;;9.71;100.00
35908;BME280;22003;50.320;8.054;2022-12-29T05:32:06;98675.69;;;9.67;100.00
35908;BME280;22003;50.320;8.054;2022-12-29T05:34:31;98666.50;;;9.71;100.00
35908;BME280;22003;50.320;8.054;2022-12-29T05:36:56;98658.84;;;9.68;100.00
35908;BME280;22003;50.320;8.054;2022-12-29T05:39:22;98683.91;;;9.64;100.00
35908;BME280;22003;50.320;8.054;2022-12-29T05:41:47;98617.97;;;9.33;100.00
35908;BME280;22003;50.320;8.054;2022-12-29T05:44:12;98663.16;;;9.69;100.00
35908;BME280;22003;50.320;8.054;2022-12-29T05:46:38;98632.84;;;9.44;100.00
35908;BME280;22003;50.320;8.054;2022-12-29T05:49:04;98661.19;;;9.81;100.00
35908;BME280;22003;50.320;8.054;2022-12-29T05:51:29;98602.53;;;9.29;100.00
35908;BME280;22003;50.320;8.054;2022-12-29T05:53:55;98665.38;;;9.73;100.00
35908;BME280;22003;50.320;8.054;2022-12-29T05:56:20;98650.09;;;9.67;100.00
35908;BME280;22003;50.320;8.054;2022-12-29T05:58:45;98668.31;;;9.80;100.00
35908;BME280;22003;50.320;8.054;2022-12-29T06:01:10;98669.25;;;9.98;100.00
35908;BME280;22003;50.320;8.054;2022-12-29T06:03:36;98664.66;;;10.00;100.00
35908;BME280;22003;50.320;8.054;2022-12-29T06:06:01;98653.16;;;9.72;100.00
35908;BME280;22003;50.320;8.054;2022-12-29T06:08:26;98646.56;;;9.86;100.00
35908;BME280;22003;50.320;8.054;2022-12-29T06:10:51;98653.69;;;9.76;100.00
35908;BME280;22003;50.320;8.054;2022-12-29T06:13:17;98637.00;;;9.46;100.00
35908;BME280;22003;50.320;8.054;2022-12-29T06:15:42;98672.19;;;9.76;100.00
35908;BME280;22003;50.320;8.054;2022-12-29T06:18:07;98674.84;;;9.76;100.00
35908;BME280;22003;50.320;8.054;2022-12-29T06:20:32;98679.31;;;9.85;100.00
35908;BME280;22003;50.320;8.054;2022-12-29T06:22:58;98615.44;;;9.61;100.00
35908;BME280;22003;50.320;8.054;2022-12-29T06:25:23;98653.13;;;9.82;100.00
35908;BME280;22003;50.320;8.054;2022-12-29T06:27:49;98677.31;;;9.97;100.00
35908;BME280;22003;50.320;8.054;2022-12-29T06:30:14;98632.81;;;9.73;100.00
35908;BME280;22003;50.320;8.054;2022-12-29T06:32:40;98647.97;;;9.90;100.00
35908;BME280;22003;50.320;8.054;2022-12-29T06:35:05;98646.72;;;9.65;100.00
35908;BME280;22003;50.320;8.054;2022-12-29T06:37:31;98629.50;;;9.51;100.00
35908;BME280;22003;50.320;8.054;2022-12-29T06:39:57;98674.28;;;9.82;100.00
35908;BME280;22003;50.320;8.054;2022-12-29T06:42:22;98667.22;;;9.73;100.00
35908;BME280;22003;50.320;8.054;2022-12-29T06:44:47;98658.13;;;9.85;100.00
35908;BME280;22003;50.320;8.054;2022-12-29T06:47:13;98650.06;;;9.77;100.00
35908;BME280;22003;50.320;8.054;2022-12-29T06:49:38;98630.19;;;9.63;100.00
35908;BME280;22003;50.320;8.054;2022-12-29T06:52:03;98658.28;;;9.74;100.00
35908;BME280;22003;50.320;8.054;2022-12-29T06:54:32;98668.72;;;9.66;100.00
35908;BME280;22003;50.320;8.054;2022-12-29T06:56:58;98637.00;;;9.37;100.00
35908;BME280;22003;50.320;8.054;2022-12-29T06:59:26;98625.34;;;9.39;100.00
35908;BME280;22003;50.320;8.054;2022-12-29T07:01:52;98667.06;;;9.65;100.00
35908;BME280;22003;50.320;8.054;2022-12-29T07:04:17;98671.50;;;9.64;100.00
35908;BME280;22003;50.320;8.054;2022-12-29T07:06:43;98653.97;;;9.53;100.00
35908;BME280;22003;50.320;8.054;2022-12-29T07:09:09;98639.25;;;9.41;100.00
35908;BME280;22003;50.320;8.054;2022-12-29T07:11:34;98674.00;;;9.75;100.00
35908;BME280;22003;50.320;8.054;2022-12-29T07:14:00;98663.00;;;9.70;100.00
35908;BME280;22003;50.320;8.054;2022-12-29T07:16:25;98653.16;;;9.72;100.00
35908;BME280;22003;50.320;8.054;2022-12-29T07:18:51;98665.53;;;9.72;100.00
35908;BME280;22003;50.320;8.054;2022-12-29T07:21:17;98658.72;;;9.69;100.00
35908;BME280;22003;50.320;8.054;2022-12-29T07:23:42;98667.47;;;9.70;100.00
35908;BME280;22003;50.320;8.054;2022-12-29T07:26:11;98663.94;;;9.98;100.00
35908;BME280;22003;50.320;8.054;2022-12-29T07:28:37;98662.28;;;10.07;100.00
35908;BME280;22003;50.320;8.054;2022-12-29T07:31:19;98636.16;;;9.75;100.00
35908;BME280;22003;50.320;8.054;2022-12-29T07:33:45;98661.34;;;9.89;100.00
35908;BME280;22003;50.320;8.054;2022-12-29T07:36:12;98652.44;;;9.90;100.00
35908;BME280;22003;50.320;8.054;2022-12-29T07:38:38;98658.94;;;10.05;100.00
35908;BME280;22003;50.320;8.054;2022-12-29T07:41:03;98663.09;;;10.08;100.00
35908;BME280;22003;50.320;8.054;2022-12-29T07:43:29;98662.28;;;9.88;100.00
35908;BME280;22003;50.320;8.054;2022-12-29T07:45:54;98662.28;;;9.97;100.00
35908;BME280;22003;50.320;8.054;2022-12-29T07:48:20;98622.81;;;9.67;100.00
35908;BME280;22003;50.320;8.054;2022-12-29T07:50:45;98674.13;;;9.93;100.00
35908;BME280;22003;50.320;8.054;2022-12-29T07:53:10;98673.69;;;10.08;100.00
35908;BME280;22003;50.320;8.054;2022-12-29T07:55:35;98674.50;;;10.18;100.00
35908;BME280;22003;50.320;8.054;2022-12-29T07:58:01;98688.56;;;10.18;100.00
35908;BME280;22003;50.320;8.054;2022-12-29T08:00:26;98646.38;;;10.17;99.93
35908;BME280;22003;50.320;8.054;2022-12-29T08:02:51;98691.50;;;10.15;100.00
35908;BME280;22003;50.320;8.054;2022-12-29T08:05:17;98681.53;;;9.99;100.00
35908;BME280;22003;50.320;8.054;2022-12-29T08:07:43;98722.16;;;10.08;100.00
35908;BME280;22003;50.320;8.054;2022-12-29T08:10:09;98697.69;;;9.58;100.00
35908;BME280;22003;50.320;8.054;2022-12-29T08:12:35;98766.88;;;9.92;100.00
35908;BME280;22003;50.320;8.054;2022-12-29T08:15:00;98779.84;;;9.95;100.00
35908;BME280;22003;50.320;8.054;2022-12-29T08:17:25;98772.97;;;9.83;100.00
35908;BME280;22003;50.320;8.054;2022-12-29T08:19:51;98767.53;;;9.65;100.00
35908;BME280;22003;50.320;8.054;2022-12-29T08:22:16;98783.41;;;9.65;100.00
35908;BME280;22003;50.320;8.054;2022-12-29T08:24:41;98767.25;;;9.48;100.00
35908;BME280;22003;50.320;8.054;2022-12-29T08:27:06;98789.97;;;9.61;100.00
35908;BME280;22003;50.320;8.054;2022-12-29T08:29:32;98749.28;;;9.42;100.00
35908;BME280;22003;50.320;8.054;2022-12-29T08:31:57;98727.31;;;9.42;100.00
35908;BME280;22003;50.320;8.054;2022-12-29T08:34:22;98749.88;;;9.56;100.00
35908;BME280;22003;50.320;8.054;2022-12-29T08:36:48;98744.16;;;9.41;100.00
35908;BME280;22003;50.320;8.054;2022-12-29T08:39:13;98728.00;;;9.34;100.00
35908;BME280;22003;50.320;8.054;2022-12-29T08:41:38;98754.31;;;9.45;100.00
35908;BME280;22003;50.320;8.054;2022-12-29T08:44:04;98723.25;;;9.28;100.00
35908;BME280;22003;50.320;8.054;2022-12-29T08:46:29;98709.44;;;9.05;100.00
35908;BME280;22003;50.320;8.054;2022-12-29T08:48:54;98760.53;;;9.25;100.00
35908;BME280;22003;50.320;8.054;2022-12-29T08:51:20;98765.97;;;9.43;100.00
35908;BME280;22003;50.320;8.054;2022-12-29T08:53:45;98765.16;;;9.42;100.00
35908;BME280;22003;50.320;8.054;2022-12-29T08:56:10;98766.28;;;9.49;100.00
35908;BME280;22003;50.320;8.054;2022-12-29T08:58:36;98772.97;;;9.63;100.00
35908;BME280;22003;50.320;8.054;2022-12-29T09:01:02;98772.28;;;9.51;100.00
35908;BME280;22003;50.320;8.054;2022-12-29T09:03:28;98780.91;;;9.63;100.00
35908;BME280;22003;50.320;8.054;2022-12-29T09:05:54;98786.34;;;9.71;100.00
35908;BME280;22003;50.320;8.054;2022-12-29T09:08:20;98781.75;;;9.64;100.00
35908;BME280;22003;50.320;8.054;2022-12-29T09:10:45;98801.25;;;9.72;100.00
35908;BME280;22003;50.320;8.054;2022-12-29T09:13:12;98788.72;;;9.74;100.00
35908;BME280;22003;50.320;8.054;2022-12-29T09:15:38;98781.50;;;9.86;100.00
35908;BME280;22003;50.320;8.054;2022-12-29T09:18:04;98787.75;;;10.04;100.00
35908;BME280;22003;50.320;8.054;2022-12-29T09:20:29;98790.97;;;9.98;100.00
35908;BME280;22003;50.320;8.054;2022-12-29T09:22:55;98787.06;;;10.02;100.00
35908;BME280;22003;50.320;8.054;2022-12-29T09:25:20;98795.13;;;9.91;100.00
35908;BME280;22003;50.320;8.054;2022-12-29T09:27:49;98810.44;;;9.88;100.00
35908;BME280;22003;50.320;8.054;2022-12-29T09:30:14;98806.28;;;9.85;100.00
35908;BME280;22003;50.320;8.054;2022-12-29T09:32:40;98811.69;;;9.93;100.00
35908;BME280;22003;50.320;8.054;2022-12-29T09:35:06;98825.34;;;9.98;100.00
35908;BME280;22003;50.320;8.054;2022-12-29T09:37:32;98828.56;;;9.92;100.00
35908;BME280;22003;50.320;8.054;2022-12-29T09:39:57;98833.59;;;9.95;100.00
35908;BME280;22003;50.320;8.054;2022-12-29T09:45:16;98826.88;;;9.82;100.00
35908;BME280;22003;50.320;8.054;2022-12-29T09:47:43;98848.03;;;9.82;100.00
35908;BME280;22003;50.320;8.054;2022-12-29T09:52:54;98798.25;;;9.37;100.00
35908;BME280;22003;50.320;8.054;2022-12-29T09:55:23;98798.84;;;9.60;100.00
35908;BME280;22003;50.320;8.054;2022-12-29T09:57:57;98816.03;;;9.85;100.00
35908;BME280;22003;50.320;8.054;2022-12-29T10:00:36;98787.88;;;9.74;100.00
35908;BME280;22003;50.320;8.054;2022-12-29T10:03:20;98807.97;;;10.25;100.00
35908;BME280;22003;50.320;8.054;2022-12-29T10:08:37;98822.47;;;10.50;100.00
35908;BME280;22003;50.320;8.054;2022-12-29T10:17:10;98841.94;;;10.10;100.00
35908;BME280;22003;50.320;8.054;2022-12-29T10:19:57;98837.06;;;9.96;100.00
35908;BME280;22003;50.320;8.054;2022-12-29T10:22:45;98831.22;;;10.12;100.00
35908;BME280;22003;50.320;8.054;2022-12-29T10:25:19;98829.16;;;10.25;100.00
35908;BME280;22003;50.320;8.054;2022-12-29T10:27:49;98814.06;;;10.16;100.00
35908;BME280;22003;50.320;8.054;2022-12-29T10:30:16;98825.66;;;10.53;100.00
35908;BME280;22003;50.320;8.054;2022-12-29T10:32:47;98825.78;;;10.52;100.00
35908;BME280;22003;50.320;8.054;2022-12-29T10:35:18;98845.72;;;10.56;100.00
35908;BME280;22003;50.320;8.054;2022-12-29T10:40:27;98804.75;;;10.50;100.00
35908;BME280;22003;50.320;8.054;2022-12-29T10:42:56;98828.53;;;10.70;100.00
35908;BME280;22003;50.320;8.054;2022-12-29T10:45:25;98827.72;;;10.60;100.00
35908;BME280;22003;50.320;8.054;2022-12-29T10:48:03;98816.97;;;10.71;99.11
35908;BME280;22003;50.320;8.054;2022-12-29T10:50:31;98820.59;;;10.60;98.36
35908;BME280;22003;50.320;8.054;2022-12-29T10:52:59;98821.31;;;10.72;96.73
35908;BME280;22003;50.320;8.054;2022-12-29T10:55:32;98797.09;;;10.47;96.65
35908;BME280;22003;50.320;8.054;2022-12-29T10:58:04;98817.53;;;10.65;95.90
35908;BME280;22003;50.320;8.054;2022-12-29T11:00:30;98827.16;;;10.66;95.79
35908;BME280;22003;50.320;8.054;2022-12-29T11:03:07;98823.50;;;10.76;95.07
35908;BME280;22003;50.320;8.054;2022-12-29T11:06:03;98760.03;;;10.18;93.63
35908;BME280;22003;50.320;8.054;2022-12-29T11:08:38;98831.34;;;10.58;92.39
35908;BME280;22003;50.320;8.054;2022-12-29T11:11:08;98821.16;;;10.64;88.29
35908;BME280;22003;50.320;8.054;2022-12-29T11:13:51;98831.34;;;10.68;89.45
35908;BME280;22003;50.320;8.054;2022-12-29T11:16:28;98805.75;;;10.49;88.82
35908;BME280;22003;50.320;8.054;2022-12-29T11:18:55;98786.94;;;10.33;89.40
35908;BME280;22003;50.320;8.054;2022-12-29T11:23:58;98832.84;;;10.71;86.50
35908;BME280;22003;50.320;8.054;2022-12-29T11:26:24;98830.53;;;10.58;86.07
35908;BME280;22003;50.320;8.054;2022-12-29T11:31:50;98808.50;;;10.38;85.88
35908;BME280;22003;50.320;8.054;2022-12-29T11:34:22;98848.66;;;10.63;86.08
35908;BME280;22003;50.320;8.054;2022-12-29T11:36:50;98840.28;;;10.57;85.83
35908;BME280;22003;50.320;8.054;2022-12-29T11:39:32;98810.31;;;10.47;85.06
35908;BME280;22003;50.320;8.054;2022-12-29T11:41:58;98823.88;;;10.44;85.98
35908;BME280;22003;50.320;8.054;2022-12-29T11:44:24;98849.22;;;10.66;84.07
35908;BME280;22003;50.320;8.054;2022-12-29T11:46:51;98858.09;;;10.75;85.30
35908;BME280;22003;50.320;8.054;2022-12-29T11:49:23;98815.34;;;10.50;82.92
35908;BME280;22003;50.320;8.054;2022-12-29T11:51:51;98839.88;;;10.62;81.71
35908;BME280;22003;50.320;8.054;2022-12-29T11:54:19;98846.56;;;10.56;81.35
35908;BME280;22003;50.320;8.054;2022-12-29T11:56:48;98858.09;;;10.65;80.42
35908;BME280;22003;50.320;8.054;2022-12-29T12:02:01;98855.03;;;10.70;79.32
35908;BME280;22003;50.320;8.054;2022-12-29T12:04:30;98837.47;;;10.69;79.39
35908;BME280;22003;50.320;8.054;2022-12-29T12:07:11;98854.88;;;10.71;79.21
35908;BME280;22003;50.320;8.054;2022-12-29T12:09:45;98849.47;;;10.73;79.82
35908;BME280;22003;50.320;8.054;2022-12-29T12:12:29;98853.09;;;10.62;79.98
35908;BME280;22003;50.320;8.054;2022-12-29T12:14:58;98871.78;;;10.61;79.75
35908;BME280;22003;50.320;8.054;2022-12-29T12:17:30;98868.44;;;10.68;80.14
35908;BME280;22003;50.320;8.054;2022-12-29T12:20:38;98857.25;;;10.74;79.11
35908;BME280;22003;50.320;8.054;2022-12-29T12:23:27;98869.25;;;10.78;80.30
35908;BME280;22003;50.320;8.054;2022-12-29T12:26:12;98858.22;;;10.83;79.74
35908;BME280;22003;50.320;8.054;2022-12-29T12:28:57;98827.53;;;10.90;79.50
35908;BME280;22003;50.320;8.054;2022-12-29T12:34:17;98815.34;;;10.97;80.18
35908;BME280;22003;50.320;8.054;2022-12-29T12:39:26;98858.88;;;11.32;78.88
35908;BME280;22003;50.320;8.054;2022-12-29T12:44:58;98863.25;;;11.33;78.13
35908;BME280;22003;50.320;8.054;2022-12-29T13:03:57;98799.00;;;10.65;76.24
35908;BME280;22003;50.320;8.054;2022-12-29T13:09:30;98815.59;;;10.67;77.01
35908;BME280;22003;50.320;8.054;2022-12-29T13:12:07;98860.81;;;11.02;76.91
35908;BME280;22003;50.320;8.054;2022-12-29T13:15:01;98847.75;;;10.91;76.18
35908;BME280;22003;50.320;8.054;2022-12-29T13:17:40;98853.28;;;10.98;76.25
35908;BME280;22003;50.320;8.054;2022-12-29T13:20:29;98854.34;;;11.15;75.28
35908;BME280;22003;50.320;8.054;2022-12-29T13:23:14;98854.66;;;11.12;75.62
35908;BME280;22003;50.320;8.054;2022-12-29T13:28:25;98851.25;;;10.82;76.71
35908;BME280;22003;50.320;8.054;2022-12-29T13:31:04;98814.47;;;10.60;77.04
35908;BME280;22003;50.320;8.054;2022-12-29T13:33:56;98874.63;;;11.06;75.35
35908;BME280;22003;50.320;8.054;2022-12-29T13:36:37;98826.91;;;11.06;74.05
35908;BME280;22003;50.320;8.054;2022-12-29T13:39:16;98879.59;;;11.28;73.82
35908;BME280;22003;50.320;8.054;2022-12-29T13:41:49;98832.66;;;11.01;73.59
35908;BME280;22003;50.320;8.054;2022-12-29T13:44:21;98875.19;;;11.37;73.75
35908;BME280;22003;50.320;8.054;2022-12-29T13:46:48;98879.34;;;11.22;74.39
35908;BME280;22003;50.320;8.054;2022-12-29T13:49:17;98886.31;;;11.23;74.07
35908;BME280;22003;50.320;8.054;2022-12-29T13:51:53;98887.06;;;11.05;73.85
35908;BME280;22003;50.320;8.054;2022-12-29T13:54:55;98891.53;;;11.05;73.56
35908;BME280;22003;50.320;8.054;2022-12-29T14:00:21;98890.63;;;11.14;73.71
35908;BME280;22003;50.320;8.054;2022-12-29T14:05:32;98887.50;;;10.91;74.46
35908;BME280;22003;50.320;8.054;2022-12-29T14:08:05;98888.38;;;10.72;74.58
35908;BME280;22003;50.320;8.054;2022-12-29T14:10:46;98901.31;;;10.66;75.42
35908;BME280;22003;50.320;8.054;2022-12-29T14:13:14;98878.34;;;10.27;76.77
35908;BME280;22003;50.320;8.054;2022-12-29T14:15:43;98897.84;;;10.36;77.05
35908;BME280;22003;50.320;8.054;2022-12-29T14:20:39;98907.97;;;10.12;77.69
35908;BME280;22003;50.320;8.054;2022-12-29T14:28:29;98910.97;;;9.88;78.91
35908;BME280;22003;50.320;8.054;2022-12-29T14:30:56;98918.75;;;9.79;78.88
35908;BME280;22003;50.320;8.054;2022-12-29T14:33:23;98916.53;;;9.75;79.84
35908;BME280;22003;50.320;8.054;2022-12-29T14:35:51;98894.88;;;9.50;79.49
35908;BME280;22003;50.320;8.054;2022-12-29T14:38:28;98862.03;;;9.13;81.32
35908;BME280;22003;50.320;8.054;2022-12-29T14:41:27;98919.84;;;9.67;80.46
35908;BME280;22003;50.320;8.054;2022-12-29T14:43:59;98904.03;;;9.46;81.29
35908;BME280;22003;50.320;8.054;2022-12-29T14:46:43;98918.47;;;9.73;80.02
35908;BME280;22003;50.320;8.054;2022-12-29T14:49:15;98899.09;;;9.63;79.07
35908;BME280;22003;50.320;8.054;2022-12-29T14:51:41;98924.31;;;9.76;79.21
35908;BME280;22003;50.320;8.054;2022-12-29T14:54:34;98915.69;;;9.74;78.55
35908;BME280;22003;50.320;8.054;2022-12-29T14:57:07;98923.56;;;10.05;77.41
35908;BME280;22003;50.320;8.054;2022-12-29T14:59:34;98918.91;;;9.88;77.82
35908;BME280;22003;50.320;8.054;2022-12-29T15:02:04;98933.06;;;9.67;79.55
35908;BME280;22003;50.320;8.054;2022-12-29T15:04:36;98927.28;;;9.52;79.60
35908;BME280;22003;50.320;8.054;2022-12-29T15:07:02;98937.78;;;9.64;79.67
35908;BME280;22003;50.320;8.054;2022-12-29T15:09:37;98931.78;;;9.62;79.37
35908;BME280;22003;50.320;8.054;2022-12-29T15:12:20;98927.59;;;9.49;79.48
35908;BME280;22003;50.320;8.054;2022-12-29T15:14:55;98893.47;;;9.46;78.91
35908;BME280;22003;50.320;8.054;2022-12-29T15:17:26;98943.03;;;9.54;79.92
35908;BME280;22003;50.320;8.054;2022-12-29T15:19:53;98918.09;;;9.16;80.33
35908;BME280;22003;50.320;8.054;2022-12-29T15:22:19;98959.88;;;9.32;81.63
35908;BME280;22003;50.320;8.054;2022-12-29T15:24:45;98952.47;;;9.26;81.12
35908;BME280;22003;50.320;8.054;2022-12-29T15:27:14;98948.31;;;9.23;80.57
35908;BME280;22003;50.320;8.054;2022-12-29T15:29:42;98944.94;;;9.21;79.64
35908;BME280;22003;50.320;8.054;2022-12-29T15:32:25;98954.16;;;9.27;79.22
35908;BME280;22003;50.320;8.054;2022-12-29T15:34:56;98963.16;;;8.94;80.29
35908;BME280;22003;50.320;8.054;2022-12-29T15:37:26;98952.09;;;8.68;81.60
35908;BME280;22003;50.320;8.054;2022-12-29T15:39:52;98948.91;;;9.06;80.41
35908;BME280;22003;50.320;8.054;2022-12-29T15:45:03;98895.47;;;8.29;80.81
35908;BME280;22003;50.320;8.054;2022-12-29T15:47:30;98961.13;;;8.86;80.38
35908;BME280;22003;50.320;8.054;2022-12-29T15:50:05;98958.78;;;8.51;82.29
35908;BME280;22003;50.320;8.054;2022-12-29T15:52:33;98957.22;;;8.49;82.75
35908;BME280;22003;50.320;8.054;2022-12-29T15:54:59;98976.78;;;8.35;82.72
35908;BME280;22003;50.320;8.054;2022-12-29T15:57:27;98970.44;;;8.26;83.99
35908;BME280;22003;50.320;8.054;2022-12-29T15:59:53;98974.78;;;8.16;84.15
35908;BME280;22003;50.320;8.054;2022-12-29T16:02:21;98969.06;;;8.11;84.07
35908;BME280;22003;50.320;8.054;2022-12-29T16:04:47;98985.75;;;7.89;85.63
35908;BME280;22003;50.320;8.054;2022-12-29T16:07:30;98980.84;;;7.73;86.90
35908;BME280;22003;50.320;8.054;2022-12-29T16:09:58;98977.13;;;7.76;87.50
35908;BME280;22003;50.320;8.054;2022-12-29T16:12:25;98972.47;;;7.68;87.83
35908;BME280;22003;50.320;8.054;2022-12-29T16:15:01;98988.97;;;7.70;87.97
35908;BME280;22003;50.320;8.054;2022-12-29T16:17:31;98983.34;;;7.52;88.48
35908;BME280;22003;50.320;8.054;2022-12-29T16:20:01;98953.03;;;7.47;88.10
35908;BME280;22003;50.320;8.054;2022-12-29T16:22:30;98979.03;;;7.85;86.98
35908;BME280;22003;50.320;8.054;2022-12-29T16:25:10;98980.84;;;7.84;85.74
35908;BME280;22003;50.320;8.054;2022-12-29T16:27:41;98989.72;;;7.94;85.28
35908;BME280;22003;50.320;8.054;2022-12-29T16:30:19;98994.56;;;8.21;83.86
35908;BME280;22003;50.320;8.054;2022-12-29T16:32:48;98988.94;;;8.15;83.31
35908;BME280;22003;50.320;8.054;2022-12-29T16:35:26;99004.56;;;7.96;83.79
35908;BME280;22003;50.320;8.054;2022-12-29T16:40:56;98987.78;;;7.85;82.37
35908;BME280;22003;50.320;8.054;2022-12-29T16:43:29;99005.97;;;8.33;80.50
35908;BME280;22003;50.320;8.054;2022-12-29T16:48:35;98984.41;;;8.17;80.00
35908;BME280;22003;50.320;8.054;2022-12-29T16:51:12;99018.81;;;8.15;80.90
35908;BME280;22003;50.320;8.054;2022-12-29T16:53:39;99021.56;;;8.14;80.61
35908;BME280;22003;50.320;8.054;2022-12-29T16:56:15;99025.91;;;7.92;81.45
35908;BME280;22003;50.320;8.054;2022-12-29T16:58:46;99033.31;;;7.99;81.60
35908;BME280;22003;50.320;8.054;2022-12-29T17:01:12;99028.53;;;7.92;81.49
35908;BME280;22003;50.320;8.054;2022-12-29T17:03:42;99005.28;;;7.53;82.61
35908;BME280;22003;50.320;8.054;2022-12-29T17:06:14;99034.28;;;7.86;82.96
35908;BME280;22003;50.320;8.054;2022-12-29T17:08:41;99019.44;;;7.63;83.21
35908;BME280;22003;50.320;8.054;2022-12-29T17:11:30;99031.91;;;7.61;84.18
35908;BME280;22003;50.320;8.054;2022-12-29T17:14:36;99026.38;;;7.75;83.31
35908;BME280;22003;50.320;8.054;2022-12-29T17:19:42;99047.22;;;7.56;84.33
35908;BME280;22003;50.320;8.054;2022-12-29T17:22:12;99047.69;;;7.38;85.75
35908;BME280;22003;50.320;8.054;2022-12-29T17:24:38;99051.06;;;7.74;84.08
35908;BME280;22003;50.320;8.054;2022-12-29T17:27:03;99038.94;;;7.60;84.60
35908;BME280;22003;50.320;8.054;2022-12-29T17:29:37;99040.47;;;7.40;85.35
35908;BME280;22003;50.320;8.054;2022-12-29T17:32:06;99059.78;;;7.52;86.13
35908;BME280;22003;50.320;8.054;2022-12-29T17:34:34;99066.97;;;7.50;85.69
35908;BME280;22003;50.320;8.054;2022-12-29T17:36:59;99021.53;;;7.24;85.29
35908;BME280;22003;50.320;8.054;2022-12-29T17:39:25;99061.72;;;7.15;86.82
35908;BME280;22003;50.320;8.054;2022-12-29T17:41:50;99067.66;;;7.30;86.91
35908;BME280;22003;50.320;8.054;2022-12-29T17:44:17;99071.13;;;6.95;87.36
35908;BME280;22003;50.320;8.054;2022-12-29T17:46:44;99073.06;;;6.80;88.82
35908;BME280;22003;50.320;8.054;2022-12-29T17:49:12;99059.91;;;6.56;89.59
35908;BME280;22003;50.320;8.054;2022-12-29T17:51:38;99052.00;;;6.80;88.79
35908;BME280;22003;50.320;8.054;2022-12-29T17:54:04;99023.34;;;6.41;88.69
35908;BME280;22003;50.320;8.054;2022-12-29T17:56:29;99057.78;;;6.85;87.25
35908;BME280;22003;50.320;8.054;2022-12-29T17:58:55;99048.31;;;6.59;89.09
35908;BME280;22003;50.320;8.054;2022-12-29T18:01:20;98996.34;;;6.74;89.24
35908;BME280;22003;50.320;8.054;2022-12-29T18:03:46;99050.59;;;6.87;88.11
35908;BME280;22003;50.320;8.054;2022-12-29T18:06:11;99051.63;;;6.50;88.70
35908;BME280;22003;50.320;8.054;2022-12-29T18:08:38;99002.94;;;6.07;89.30
35908;BME280;22003;50.320;8.054;2022-12-29T18:11:24;99061.09;;;6.03;91.54
35908;BME280;22003;50.320;8.054;2022-12-29T18:13:52;99071.63;;;6.03;92.86
35908;BME280;22003;50.320;8.054;2022-12-29T18:16:17;99072.94;;;6.21;91.67
35908;BME280;22003;50.320;8.054;2022-12-29T18:18:43;99035.56;;;5.79;90.64
35908;BME280;22003;50.320;8.054;2022-12-29T18:21:17;99083.72;;;5.93;91.01
35908;BME280;22003;50.320;8.054;2022-12-29T18:23:43;99079.19;;;5.69;90.60
35908;BME280;22003;50.320;8.054;2022-12-29T18:26:25;99099.19;;;5.97;90.72
35908;BME280;22003;50.320;8.054;2022-12-29T18:28:53;99103.72;;;5.95;92.12
35908;BME280;22003;50.320;8.054;2022-12-29T18:31:20;99107.25;;;5.56;92.36
35908;BME280;22003;50.320;8.054;2022-12-29T18:33:47;99079.50;;;5.39;93.71
35908;BME280;22003;50.320;8.054;2022-12-29T18:36:14;99111.19;;;5.36;94.41
35908;BME280;22003;50.320;8.054;2022-12-29T18:38:40;99114.06;;;5.33;96.10
35908;BME280;22003;50.320;8.054;2022-12-29T18:41:08;99109.81;;;5.18;94.40
35908;BME280;22003;50.320;8.054;2022-12-29T18:43:37;99122.97;;;5.30;96.43
35908;BME280;22003;50.320;8.054;2022-12-29T18:46:02;99091.44;;;5.43;95.88
35908;BME280;22003;50.320;8.054;2022-12-29T18:48:27;99118.13;;;5.24;95.81
35908;BME280;22003;50.320;8.054;2022-12-29T18:50:53;99129.28;;;5.28;96.97
35908;BME280;22003;50.320;8.054;2022-12-29T18:53:21;99125.72;;;5.42;97.78
35908;BME280;22003;50.320;8.054;2022-12-29T18:55:46;99120.97;;;5.34;97.75
35908;BME280;22003;50.320;8.054;2022-12-29T18:58:13;99130.66;;;5.34;98.37
35908;BME280;22003;50.320;8.054;2022-12-29T19:00:39;99123.72;;;5.45;97.96
35908;BME280;22003;50.320;8.054;2022-12-29T19:03:05;99087.91;;;5.57;96.57
35908;BME280;22003;50.320;8.054;2022-12-29T19:05:35;99118.72;;;5.68;95.86
35908;BME280;22003;50.320;8.054;2022-12-29T19:08:01;99109.75;;;5.45;97.12
35908;BME280;22003;50.320;8.054;2022-12-29T19:10:26;99125.84;;;5.53;97.57
35908;BME280;22003;50.320;8.054;2022-12-29T19:12:52;99120.94;;;5.74;95.37
35908;BME280;22003;50.320;8.054;2022-12-29T19:17:48;99138.31;;;5.49;97.78
35908;BME280;22003;50.320;8.054;2022-12-29T19:20:31;99140.44;;;5.44;97.70
35908;BME280;22003;50.320;8.054;2022-12-29T19:22:59;99121.00;;;5.47;98.66
35908;BME280;22003;50.320;8.054;2022-12-29T19:25:25;99138.75;;;5.43;97.97
35908;BME280;22003;50.320;8.054;2022-12-29T19:27:51;99137.41;;;5.76;97.41
35908;BME280;22003;50.320;8.054;2022-12-29T19:30:17;99113.13;;;5.47;97.98
35908;BME280;22003;50.320;8.054;2022-12-29T19:32:46;99134.13;;;5.47;97.58
35908;BME280;22003;50.320;8.054;2022-12-29T19:35:12;99147.59;;;5.55;98.60
35908;BME280;22003;50.320;8.054;2022-12-29T19:37:37;99154.78;;;5.78;98.58